Time;durP1;ratioP1;P1;durP2;ratioP2;P2;SDS_P1;SDS_P2;PMS_P1;PMS_P2;Temp;Humidity;BMP_temperature;BMP_pressure;BME280_temperature;BME280_humidity;BME280_pressure;Samples;Min_cycle;Max_cycle;Signal;HPM_P1;HPM_P2
2024/03/04 00:00:21;;;;;;;3.40;1.77;;;;;;;;;;6243570;23;20184;-79
2024/03/04 00:02:50;;;;;;;1.60;1.10;;;;;;;;;;6216855;23;20157;-83
2024/03/04 00:05:18;;;;;;;1.67;1.13;;;;;;;;;;6191501;23;20378;-79
2024/03/04 00:07:47;;;;;;;2.20;1.20;;;;;;;;;;6216337;23;20219;-80
2024/03/04 00:10:14;;;;;;;2.07;1.30;;;;;;;;;;6216676;23;20260;-80
2024/03/04 00:12:44;;;;;;;2.00;0.90;;;;;;;;;;6211106;23;20189;-82
2024/03/04 00:15:13;;;;;;;2.03;1.20;;;;;;;;;;6211282;23;20208;-81
2024/03/04 00:17:41;;;;;;;2.50;1.03;;;;;;;;;;6211380;23;20166;-82
2024/03/04 00:20:09;;;;;;;2.53;0.90;;;;;;;;;;6211267;23;20215;-79
2024/03/04 00:22:41;;;;;;;1.57;1.00;;;;;;;;;;6213156;23;20703;-79
2024/03/04 00:25:16;;;;;;;4.10;1.10;;;;;;;;;;6211414;23;20170;-79
2024/03/04 00:27:43;;;;;;;1.47;1.03;;;;;;;;;;6212301;23;20682;-79
2024/03/04 00:30:11;;;;;;;2.13;1.00;;;;;;;;;;6212914;23;20172;-79
2024/03/04 00:32:38;;;;;;;1.93;0.90;;;;;;;;;;6186610;23;20178;-83
2024/03/04 00:35:09;;;;;;;1.37;0.90;;;;;;;;;;6212713;23;20165;-81
2024/03/04 00:37:38;;;;;;;1.53;1.00;;;;;;;;;;6211434;23;20204;-80
2024/03/04 00:40:08;;;;;;;2.10;0.93;;;;;;;;;;6213180;23;20165;-81
2024/03/04 00:42:42;;;;;;;2.33;1.17;;;;;;;;;;6211142;23;20233;-82
2024/03/04 00:45:10;;;;;;;1.50;1.00;;;;;;;;;;6213173;23;20150;-79
2024/03/04 00:47:39;;;;;;;1.50;1.03;;;;;;;;;;6187073;23;20185;-82
2024/03/04 00:50:08;;;;;;;1.23;1.03;;;;;;;;;;6211846;23;20181;-79
2024/03/04 00:52:39;;;;;;;2.67;1.27;;;;;;;;;;6212953;23;20169;-82
2024/03/04 00:55:08;;;;;;;2.37;1.13;;;;;;;;;;6212777;23;20154;-80
2024/03/04 00:57:40;;;;;;;1.70;0.90;;;;;;;;;;6211125;23;20224;-80
2024/03/04 01:00:14;;;;;;;2.03;1.10;;;;;;;;;;6212864;23;20189;-80
2024/03/04 01:02:42;;;;;;;1.63;0.90;;;;;;;;;;6212574;23;20188;-81
2024/03/04 01:05:12;;;;;;;2.20;1.17;;;;;;;;;;6211228;23;20160;-79
2024/03/04 01:07:39;;;;;;;2.27;1.40;;;;;;;;;;6211438;23;20178;-81
2024/03/04 01:10:09;;;;;;;3.63;0.97;;;;;;;;;;6211378;23;20170;-79
2024/03/04 01:12:39;;;;;;;2.50;1.17;;;;;;;;;;6216855;23;20419;-81
2024/03/04 01:15:06;;;;;;;2.30;1.20;;;;;;;;;;6216428;23;20169;-81
2024/03/04 01:17:36;;;;;;;1.77;1.00;;;;;;;;;;6242372;23;20169;-81
2024/03/04 01:20:04;;;;;;;1.37;1.07;;;;;;;;;;6215884;23;20173;-79
2024/03/04 01:22:31;;;;;;;1.70;1.10;;;;;;;;;;6242328;23;20197;-82
2024/03/04 01:25:02;;;;;;;1.60;0.90;;;;;;;;;;6242886;23;20156;-79
2024/03/04 01:27:29;;;;;;;2.07;1.10;;;;;;;;;;6244009;23;20172;-79
2024/03/04 01:29:56;;;;;;;1.33;1.07;;;;;;;;;;6218313;23;20157;-81
2024/03/04 01:32:24;;;;;;;1.23;0.97;;;;;;;;;;6217988;23;20165;-79
2024/03/04 01:34:51;;;;;;;2.27;1.00;;;;;;;;;;6244628;23;20188;-81
2024/03/04 01:37:21;;;;;;;2.87;0.93;;;;;;;;;;6218275;23;20222;-81
2024/03/04 01:39:51;;;;;;;3.40;1.20;;;;;;;;;;6244759;23;20161;-79
2024/03/04 01:42:18;;;;;;;2.57;1.00;;;;;;;;;;6217789;23;20256;-80
2024/03/04 01:44:47;;;;;;;1.17;0.70;;;;;;;;;;6244492;23;20244;-81
2024/03/04 01:47:17;;;;;;;2.07;1.00;;;;;;;;;;6193469;23;20168;-80
2024/03/04 01:49:51;;;;;;;1.73;1.07;;;;;;;;;;6244472;23;20604;-81
2024/03/04 01:52:23;;;;;;;1.87;1.10;;;;;;;;;;6217657;23;20172;-80
2024/03/04 01:54:57;;;;;;;4.13;2.57;;;;;;;;;;6194466;23;20526;-81
2024/03/04 01:57:28;;;;;;;1.57;1.03;;;;;;;;;;6217411;23;20255;-80
2024/03/04 01:59:56;;;;;;;2.27;1.00;;;;;;;;;;6217634;23;20173;-80
2024/03/04 02:02:23;;;;;;;3.37;1.20;;;;;;;;;;6244226;23;20185;-81
2024/03/04 02:04:51;;;;;;;2.67;1.13;;;;;;;;;;6244533;23;20170;-80
2024/03/04 02:07:19;;;;;;;1.80;1.10;;;;;;;;;;6217408;23;20176;-80
2024/03/04 02:09:49;;;;;;;2.03;0.83;;;;;;;;;;6244005;23;20188;-79
2024/03/04 02:12:17;;;;;;;1.63;1.17;;;;;;;;;;6212006;23;20709;-79
2024/03/04 02:14:45;;;;;;;1.97;1.03;;;;;;;;;;6212396;23;20173;-80
2024/03/04 02:17:12;;;;;;;1.60;1.10;;;;;;;;;;6212769;23;20173;-78
2024/03/04 02:19:39;;;;;;;1.30;0.93;;;;;;;;;;6187250;23;20170;-79
2024/03/04 02:22:08;;;;;;;1.70;0.83;;;;;;;;;;6212216;23;20656;-79
2024/03/04 02:24:35;;;;;;;1.90;0.97;;;;;;;;;;6213670;23;20256;-85
2024/03/04 02:27:02;;;;;;;3.17;1.00;;;;;;;;;;6212092;23;20173;-78
2024/03/04 02:29:29;;;;;;;2.40;1.00;;;;;;;;;;6187789;23;20178;-78
2024/03/04 02:31:57;;;;;;;1.47;0.90;;;;;;;;;;6188119;23;20173;-80
2024/03/04 02:34:25;;;;;;;1.37;0.70;;;;;;;;;;6212652;23;20264;-79
2024/03/04 02:36:53;;;;;;;1.10;0.87;;;;;;;;;;6214062;23;20169;-80
2024/03/04 02:39:21;;;;;;;1.17;0.90;;;;;;;;;;6213845;23;20188;-79
2024/03/04 02:41:50;;;;;;;1.77;0.70;;;;;;;;;;6213393;23;20185;-80
2024/03/04 02:44:19;;;;;;;2.23;0.90;;;;;;;;;;6212069;23;20193;-81
2024/03/04 02:46:51;;;;;;;1.20;1.00;;;;;;;;;;6187451;23;20166;-79
2024/03/04 02:49:18;;;;;;;1.87;0.80;;;;;;;;;;6212429;23;20166;-80
2024/03/04 02:51:45;;;;;;;1.70;0.90;;;;;;;;;;6212484;23;20162;-80
2024/03/04 02:54:16;;;;;;;1.40;1.00;;;;;;;;;;6213585;23;20169;-80
2024/03/04 02:56:43;;;;;;;1.70;0.90;;;;;;;;;;6213592;23;20166;-78
2024/03/04 02:59:21;;;;;;;1.20;0.97;;;;;;;;;;6212321;23;20172;-81
2024/03/04 03:01:49;;;;;;;1.40;0.90;;;;;;;;;;6213311;23;20212;-80
2024/03/04 03:04:16;;;;;;;1.80;0.90;;;;;;;;;;6212258;23;20212;-81
2024/03/04 03:06:44;;;;;;;1.47;0.80;;;;;;;;;;6212143;23;20193;-79
2024/03/04 03:09:12;;;;;;;1.90;0.90;;;;;;;;;;6212331;23;20166;-80
2024/03/04 03:11:40;;;;;;;1.30;0.87;;;;;;;;;;6217275;23;20213;-79
2024/03/04 03:14:07;;;;;;;1.97;1.00;;;;;;;;;;6192585;23;20219;-79
2024/03/04 03:16:35;;;;;;;3.47;0.90;;;;;;;;;;6217127;23;20173;-79
2024/03/04 03:19:03;;;;;;;2.63;0.83;;;;;;;;;;6192149;23;20165;-79
2024/03/04 03:21:33;;;;;;;1.63;0.87;;;;;;;;;;6193642;23;20193;-79
2024/03/04 03:24:00;;;;;;;1.80;0.90;;;;;;;;;;6216796;23;20204;-79
2024/03/04 03:26:28;;;;;;;1.57;0.90;;;;;;;;;;6217258;23;20180;-78
2024/03/04 03:28:56;;;;;;;1.20;0.90;;;;;;;;;;6243620;23;20168;-79
2024/03/04 03:31:25;;;;;;;1.10;0.90;;;;;;;;;;6217685;23;20165;-79
2024/03/04 03:33:53;;;;;;;1.23;0.80;;;;;;;;;;6243616;23;20231;-80
2024/03/04 03:36:21;;;;;;;1.40;0.90;;;;;;;;;;6217721;23;20626;-79
2024/03/04 03:38:50;;;;;;;1.37;0.97;;;;;;;;;;6244053;23;20184;-79
2024/03/04 03:41:17;;;;;;;2.03;0.77;;;;;;;;;;6243615;23;20211;-80
2024/03/04 03:43:44;;;;;;;1.87;0.90;;;;;;;;;;6217451;23;20169;-79
2024/03/04 03:46:15;;;;;;;1.27;0.90;;;;;;;;;;6243580;23;20220;-78
2024/03/04 03:48:42;;;;;;;1.57;1.03;;;;;;;;;;6216447;23;20172;-80
2024/03/04 03:51:12;;;;;;;1.23;0.80;;;;;;;;;;6217627;23;20165;-79
2024/03/04 03:53:40;;;;;;;1.13;0.97;;;;;;;;;;6243963;23;20165;-81
2024/03/04 03:56:11;;;;;;;1.50;0.90;;;;;;;;;;6217030;23;20172;-79
2024/03/04 03:58:39;;;;;;;2.37;0.90;;;;;;;;;;6217186;23;20196;-80
2024/03/04 04:01:07;;;;;;;1.97;1.00;;;;;;;;;;6216906;23;20169;-79
2024/03/04 04:03:39;;;;;;;1.37;0.90;;;;;;;;;;6193564;23;20215;-81
2024/03/04 04:06:06;;;;;;;0.70;0.70;;;;;;;;;;6192642;23;20165;-79
2024/03/04 04:08:39;;;;;;;0.97;0.77;;;;;;;;;;6217052;23;20169;-79
2024/03/04 04:11:06;;;;;;;1.53;0.90;;;;;;;;;;6243955;23;20239;-78
2024/03/04 04:13:33;;;;;;;2.90;1.00;;;;;;;;;;6217248;23;20211;-79
2024/03/04 04:16:01;;;;;;;1.43;1.00;;;;;;;;;;6217781;23;20165;-80
2024/03/04 04:18:32;;;;;;;0.80;0.63;;;;;;;;;;6244112;23;20184;-80
2024/03/04 04:21:07;;;;;;;2.30;0.90;;;;;;;;;;6243895;23;20220;-80
2024/03/04 04:23:35;;;;;;;3.53;0.90;;;;;;;;;;6217376;23;20235;-80
2024/03/04 04:26:02;;;;;;;2.20;0.97;;;;;;;;;;6216980;23;20214;-79
2024/03/04 04:28:30;;;;;;;1.70;0.90;;;;;;;;;;6217011;23;20173;-78
2024/03/04 04:30:57;;;;;;;1.67;0.80;;;;;;;;;;6192232;23;20167;-80
2024/03/04 04:33:25;;;;;;;1.87;1.00;;;;;;;;;;6192287;23;20616;-80
2024/03/04 04:35:52;;;;;;;1.53;1.20;;;;;;;;;;6243581;23;20165;-86
2024/03/04 04:38:20;;;;;;;2.50;0.80;;;;;;;;;;6243612;23;20607;-79
2024/03/04 04:40:49;;;;;;;1.27;0.90;;;;;;;;;;6243638;23;20240;-79
2024/03/04 04:43:20;;;;;;;2.70;0.90;;;;;;;;;;6217945;23;20177;-79
2024/03/04 04:45:49;;;;;;;2.93;1.10;;;;;;;;;;6243842;23;20248;-79
2024/03/04 04:48:15;;;;;;;1.73;1.13;;;;;;;;;;6216855;23;20484;-79
2024/03/04 04:50:43;;;;;;;2.93;1.00;;;;;;;;;;6217623;23;20171;-78
2024/03/04 04:53:10;;;;;;;1.10;1.00;;;;;;;;;;6243795;23;20165;-79
2024/03/04 04:55:38;;;;;;;2.90;1.10;;;;;;;;;;6243836;23;20165;-80
2024/03/04 04:58:06;;;;;;;1.53;0.90;;;;;;;;;;6244260;23;20247;-80
2024/03/04 05:00:34;;;;;;;1.40;1.00;;;;;;;;;;6217549;23;20169;-81
2024/03/04 05:03:01;;;;;;;2.63;1.07;;;;;;;;;;6220590;23;20319;-81
2024/03/04 05:05:28;;;;;;;1.17;0.90;;;;;;;;;;6195484;23;20198;-79
2024/03/04 05:07:55;;;;;;;1.73;0.97;;;;;;;;;;6220117;23;20239;-80
2024/03/04 05:10:23;;;;;;;1.63;1.00;;;;;;;;;;6246833;23;20173;-82
2024/03/04 05:12:52;;;;;;;2.50;1.00;;;;;;;;;;6246124;23;20635;-80
2024/03/04 05:15:25;;;;;;;3.50;1.00;;;;;;;;;;6246431;23;20600;-82
2024/03/04 05:17:52;;;;;;;3.27;1.10;;;;;;;;;;6220047;23;20168;-83
2024/03/04 05:20:21;;;;;;;1.87;1.07;;;;;;;;;;6220507;23;20169;-82
2024/03/04 05:22:50;;;;;;;1.43;1.00;;;;;;;;;;6220042;23;20232;-82
2024/03/04 05:25:19;;;;;;;2.33;1.17;;;;;;;;;;6220320;23;20165;-80
2024/03/04 05:27:46;;;;;;;1.83;1.20;;;;;;;;;;6194998;23;20169;-80
2024/03/04 05:30:14;;;;;;;1.13;0.97;;;;;;;;;;6220722;23;20259;-82
2024/03/04 05:32:43;;;;;;;1.77;0.87;;;;;;;;;;6247493;23;20161;-82
2024/03/04 05:35:11;;;;;;;2.37;1.13;;;;;;;;;;6220623;23;20165;-83
2024/03/04 05:37:40;;;;;;;1.37;0.90;;;;;;;;;;6221312;23;20165;-81
2024/03/04 05:40:10;;;;;;;1.60;1.00;;;;;;;;;;6196567;23;20174;-83
2024/03/04 05:42:42;;;;;;;2.30;1.00;;;;;;;;;;6196945;23;20181;-81
2024/03/04 05:45:10;;;;;;;1.83;1.03;;;;;;;;;;6220885;23;20173;-83
2024/03/04 05:47:43;;;;;;;2.13;1.50;;;;;;;;;;6220506;23;20165;-81
2024/03/04 05:50:14;;;;;;;3.93;1.40;;;;;;;;;;6247782;23;20221;-82
2024/03/04 05:52:42;;;;;;;2.53;1.40;;;;;;;;;;6247266;23;20167;-83
2024/03/04 05:55:13;;;;;;;3.57;2.30;;;;;;;;;;6222204;23;20188;-82
2024/03/04 05:57:43;;;;;;;2.13;1.50;;;;;;;;;;6221791;23;20232;-81
2024/03/04 06:00:16;;;;;;;2.63;1.40;;;;;;;;;;6196464;23;20203;-80
2024/03/04 06:02:44;;;;;;;2.63;1.30;;;;;;;;;;6221108;23;20188;-85
2024/03/04 06:05:13;;;;;;;4.37;1.67;;;;;;;;;;6220601;23;20165;-82
2024/03/04 06:07:41;;;;;;;3.70;1.37;;;;;;;;;;6247312;23;20161;-82
2024/03/04 06:10:09;;;;;;;2.23;1.20;;;;;;;;;;6195982;23;20179;-80
2024/03/04 06:12:38;;;;;;;2.90;1.43;;;;;;;;;;6247006;23;20246;-82
2024/03/04 06:15:05;;;;;;;2.50;1.50;;;;;;;;;;6220690;23;20172;-84
2024/03/04 06:17:35;;;;;;;3.47;1.40;;;;;;;;;;6220406;23;20215;-83
2024/03/04 06:20:07;;;;;;;3.40;1.70;;;;;;;;;;6220399;23;20165;-80
2024/03/04 06:22:38;;;;;;;1.80;1.60;;;;;;;;;;6220362;23;20223;-82
2024/03/04 06:25:07;;;;;;;2.20;1.90;;;;;;;;;;6246881;23;20210;-85
2024/03/04 06:27:35;;;;;;;3.27;1.57;;;;;;;;;;6195846;23;20227;-83
2024/03/04 06:30:08;;;;;;;2.23;1.60;;;;;;;;;;6247554;23;20219;-82
2024/03/04 06:32:35;;;;;;;5.47;2.37;;;;;;;;;;6220852;23;20180;-81
2024/03/04 06:35:03;;;;;;;3.53;1.70;;;;;;;;;;6221320;23;20161;-80
2024/03/04 06:37:31;;;;;;;2.70;1.63;;;;;;;;;;6221459;23;20166;-81
2024/03/04 06:39:58;;;;;;;3.83;1.73;;;;;;;;;;6220327;23;20200;-80
2024/03/04 06:42:26;;;;;;;2.73;1.80;;;;;;;;;;6195794;23;20197;-83
2024/03/04 06:44:55;;;;;;;2.10;1.80;;;;;;;;;;6195934;23;20224;-84
2024/03/04 06:47:23;;;;;;;3.10;2.03;;;;;;;;;;6220961;23;20644;-80
2024/03/04 06:49:52;;;;;;;4.70;2.00;;;;;;;;;;6219999;23;20169;-81
2024/03/04 06:52:19;;;;;;;3.33;1.93;;;;;;;;;;6245199;23;20207;-78
2024/03/04 06:54:52;;;;;;;3.97;2.30;;;;;;;;;;6193273;23;20166;-79
2024/03/04 06:57:20;;;;;;;2.97;2.03;;;;;;;;;;6242966;23;20152;-78
2024/03/04 06:59:48;;;;;;;2.37;1.90;;;;;;;;;;6242820;22;20187;-79
2024/03/04 07:02:18;;;;;;;3.40;2.30;;;;;;;;;;6243690;23;20180;-79
2024/03/04 07:04:47;;;;;;;2.83;2.10;;;;;;;;;;6243280;23;20171;-83
2024/03/04 07:07:14;;;;;;;2.47;1.80;;;;;;;;;;6243330;23;20169;-78
2024/03/04 07:09:41;;;;;;;2.70;1.97;;;;;;;;;;6243327;23;20187;-79
2024/03/04 07:12:11;;;;;;;6.23;2.17;;;;;;;;;;6242946;23;20189;-80
2024/03/04 07:14:38;;;;;;;3.83;1.90;;;;;;;;;;6241907;23;20623;-78
2024/03/04 07:17:05;;;;;;;5.07;2.23;;;;;;;;;;6216262;23;20270;-78
2024/03/04 07:19:33;;;;;;;3.43;2.27;;;;;;;;;;6243159;23;20165;-81
2024/03/04 07:22:01;;;;;;;3.90;2.53;;;;;;;;;;6242108;23;20236;-78
2024/03/04 07:24:28;;;;;;;2.73;2.20;;;;;;;;;;6242554;23;20170;-78
2024/03/04 07:26:57;;;;;;;4.83;2.60;;;;;;;;;;6243121;23;20165;-79
2024/03/04 07:29:27;;;;;;;3.27;2.20;;;;;;;;;;6242538;23;20674;-79
2024/03/04 07:32:06;;;;;;;4.40;2.40;;;;;;;;;;6242929;23;20201;-81
2024/03/04 07:34:33;;;;;;;2.73;2.40;;;;;;;;;;6242752;23;20627;-80
2024/03/04 07:37:00;;;;;;;3.93;2.40;;;;;;;;;;6242798;23;20188;-80
2024/03/04 07:39:29;;;;;;;2.80;2.10;;;;;;;;;;6242978;23;20690;-79
2024/03/04 07:41:56;;;;;;;3.53;2.93;;;;;;;;;;6216544;23;20242;-80
2024/03/04 07:44:25;;;;;;;4.00;2.30;;;;;;;;;;6242883;23;20157;-83
2024/03/04 07:46:53;;;;;;;2.93;2.20;;;;;;;;;;6243041;23;20615;-81
2024/03/04 07:49:22;;;;;;;2.63;2.13;;;;;;;;;;6242586;23;20615;-80
2024/03/04 07:51:49;;;;;;;4.37;2.20;;;;;;;;;;6216514;23;20271;-79
2024/03/04 07:54:16;;;;;;;3.40;1.97;;;;;;;;;;6242496;23;20157;-80
2024/03/04 07:56:43;;;;;;;3.43;1.87;;;;;;;;;;6216044;23;20226;-81
2024/03/04 07:59:11;;;;;;;4.07;2.20;;;;;;;;;;6215792;23;20169;-79
2024/03/04 08:01:45;;;;;;;3.80;2.77;;;;;;;;;;6242813;23;20165;-80
2024/03/04 08:04:16;;;;;;;3.23;2.60;;;;;;;;;;6242356;23;20202;-81
2024/03/04 08:06:49;;;;;;;2.07;1.80;;;;;;;;;;6215944;23;20173;-80
2024/03/04 08:09:19;;;;;;;2.13;1.73;;;;;;;;;;6242244;23;20171;-80
2024/03/04 08:11:49;;;;;;;2.03;1.60;;;;;;;;;;6242477;23;20193;-81
2024/03/04 08:14:17;;;;;;;2.50;1.97;;;;;;;;;;6215261;23;20511;-80
2024/03/04 08:16:44;;;;;;;2.97;2.17;;;;;;;;;;6242790;23;20161;-82
2024/03/04 08:19:11;;;;;;;2.90;2.13;;;;;;;;;;6215818;23;20167;-80
2024/03/04 08:21:38;;;;;;;4.40;2.13;;;;;;;;;;6242724;23;20164;-79
2024/03/04 08:24:04;;;;;;;2.83;1.70;;;;;;;;;;6215274;23;20192;-81
2024/03/04 08:26:31;;;;;;;2.93;1.73;;;;;;;;;;6242659;23;20168;-80
2024/03/04 08:28:58;;;;;;;2.73;1.73;;;;;;;;;;6215835;23;20171;-81
2024/03/04 08:31:25;;;;;;;3.07;1.80;;;;;;;;;;6190813;23;20172;-81
2024/03/04 08:33:52;;;;;;;2.30;1.80;;;;;;;;;;6215575;23;20177;-80
2024/03/04 08:36:20;;;;;;;3.20;1.87;;;;;;;;;;6242342;23;20168;-79
2024/03/04 08:38:48;;;;;;;2.63;2.00;;;;;;;;;;6215816;23;20176;-80
2024/03/04 08:41:18;;;;;;;3.57;2.10;;;;;;;;;;6190733;23;20175;-82
2024/03/04 08:43:47;;;;;;;2.20;1.90;;;;;;;;;;6216427;23;20185;-82
2024/03/04 08:46:15;;;;;;;2.63;1.80;;;;;;;;;;6242679;23;20165;-80
2024/03/04 08:48:44;;;;;;;2.57;1.70;;;;;;;;;;6216208;23;20175;-80
2024/03/04 08:51:11;;;;;;;2.33;2.00;;;;;;;;;;6216358;23;20240;-81
2024/03/04 08:53:38;;;;;;;3.60;2.03;;;;;;;;;;6242532;23;20232;-80
2024/03/04 08:56:06;;;;;;;3.83;1.60;;;;;;;;;;6216339;23;20173;-79
2024/03/04 08:58:33;;;;;;;2.67;1.60;;;;;;;;;;6242218;23;20165;-82
2024/03/04 09:01:00;;;;;;;2.80;1.40;;;;;;;;;;6242075;23;20166;-80
2024/03/04 09:03:27;;;;;;;1.93;1.30;;;;;;;;;;6242091;23;20185;-81
2024/03/04 09:05:54;;;;;;;2.73;1.90;;;;;;;;;;6215346;23;20254;-81
2024/03/04 09:08:20;;;;;;;3.37;1.67;;;;;;;;;;6241994;23;20165;-80
2024/03/04 09:10:49;;;;;;;1.93;1.50;;;;;;;;;;6215413;23;20169;-81
2024/03/04 09:13:16;;;;;;;1.57;1.40;;;;;;;;;;6242082;23;20223;-81
2024/03/04 09:15:43;;;;;;;4.30;1.73;;;;;;;;;;6242592;23;20160;-80
2024/03/04 09:18:10;;;;;;;5.07;1.60;;;;;;;;;;6215519;23;20183;-80
2024/03/04 09:20:36;;;;;;;2.33;1.47;;;;;;;;;;6242335;23;20162;-80
2024/03/04 09:23:03;;;;;;;2.43;1.47;;;;;;;;;;6242789;23;20194;-80
2024/03/04 09:25:30;;;;;;;2.67;1.30;;;;;;;;;;6242015;23;20164;-81
2024/03/04 09:27:57;;;;;;;2.77;1.70;;;;;;;;;;6215837;23;20163;-82
2024/03/04 09:30:25;;;;;;;2.43;1.90;;;;;;;;;;6190186;23;20170;-81
2024/03/04 09:32:52;;;;;;;2.53;1.50;;;;;;;;;;6215880;23;20165;-79
2024/03/04 09:35:18;;;;;;;2.10;1.57;;;;;;;;;;6215481;23;20168;-79
2024/03/04 09:37:48;;;;;;;2.43;1.40;;;;;;;;;;6216745;23;20244;-81
2024/03/04 09:40:15;;;;;;;3.17;1.67;;;;;;;;;;6215088;23;20176;-81
2024/03/04 09:42:46;;;;;;;1.60;1.37;;;;;;;;;;6242016;23;20157;-80
2024/03/04 09:45:12;;;;;;;2.40;1.53;;;;;;;;;;6241897;23;20231;-81
2024/03/04 09:47:45;;;;;;;1.87;1.40;;;;;;;;;;6243175;23;20171;-79
2024/03/04 09:50:12;;;;;;;2.20;1.47;;;;;;;;;;6244180;23;20211;-80
2024/03/04 09:52:39;;;;;;;2.23;1.77;;;;;;;;;;6244451;23;20235;-80
2024/03/04 09:55:08;;;;;;;3.83;1.40;;;;;;;;;;6217358;23;20702;-81
2024/03/04 09:57:35;;;;;;;3.47;1.50;;;;;;;;;;6244280;23;20168;-81
2024/03/04 10:00:03;;;;;;;1.27;1.17;;;;;;;;;;6244002;23;20157;-81
2024/03/04 10:02:35;;;;;;;1.40;1.30;;;;;;;;;;6218794;23;20154;-80
2024/03/04 10:05:02;;;;;;;2.87;1.63;;;;;;;;;;6217217;23;20173;-80
2024/03/04 10:07:34;;;;;;;2.70;1.60;;;;;;;;;;6217135;23;20175;-80
2024/03/04 10:10:02;;;;;;;4.53;1.97;;;;;;;;;;6244205;23;20233;-80
2024/03/04 10:12:30;;;;;;;3.47;2.03;;;;;;;;;;6243619;23;20193;-80
2024/03/04 10:14:58;;;;;;;3.27;2.00;;;;;;;;;;6216950;23;20169;-80
2024/03/04 10:17:24;;;;;;;2.83;2.00;;;;;;;;;;6243699;23;20224;-80
2024/03/04 10:20:01;;;;;;;3.17;2.20;;;;;;;;;;6216952;23;20189;-80
2024/03/04 10:22:35;;;;;;;4.67;1.70;;;;;;;;;;6192115;23;20193;-80
2024/03/04 10:25:08;;;;;;;2.90;1.73;;;;;;;;;;6192039;23;20213;-81
2024/03/04 10:27:36;;;;;;;2.50;1.70;;;;;;;;;;6243711;23;20162;-80
2024/03/04 10:30:16;;;;;;;2.70;1.67;;;;;;;;;;6243750;23;20161;-80
2024/03/04 10:32:48;;;;;;;3.43;1.50;;;;;;;;;;6217022;23;20173;-80
2024/03/04 10:35:16;;;;;;;3.43;1.70;;;;;;;;;;6243666;23;20656;-81
2024/03/04 10:37:46;;;;;;;3.10;1.43;;;;;;;;;;6243329;23;20176;-80
2024/03/04 10:40:12;;;;;;;2.20;1.37;;;;;;;;;;6216610;23;20192;-81
2024/03/04 10:42:40;;;;;;;1.73;1.30;;;;;;;;;;6192142;23;20169;-79
2024/03/04 10:45:09;;;;;;;3.03;1.20;;;;;;;;;;6243366;23;20181;-79
2024/03/04 10:47:36;;;;;;;3.73;1.40;;;;;;;;;;6244035;23;20165;-80
2024/03/04 10:50:07;;;;;;;2.17;1.40;;;;;;;;;;6217302;23;20161;-81
2024/03/04 10:52:36;;;;;;;2.17;1.20;;;;;;;;;;6217868;23;20148;-80
2024/03/04 10:55:03;;;;;;;2.07;1.30;;;;;;;;;;6244005;23;20236;-80
2024/03/04 10:57:33;;;;;;;2.43;1.30;;;;;;;;;;6191887;23;20175;-81
2024/03/04 11:00:01;;;;;;;3.13;1.30;;;;;;;;;;6216602;23;20158;-80
2024/03/04 11:02:57;;;;;;;1.83;1.07;;;;;;;;;;6191542;23;20176;-80
2024/03/04 11:05:26;;;;;;;2.57;1.03;;;;;;;;;;6202684;23;20177;-81
2024/03/04 11:08:18;;;;;;;1.40;1.00;;;;;;;;;;6243935;23;20141;-81
2024/03/04 11:10:49;;;;;;;2.43;1.20;;;;;;;;;;6188012;23;20208;-81
2024/03/04 11:13:24;;;;;;;2.77;1.33;;;;;;;;;;6243302;23;20201;-80
2024/03/04 11:15:54;;;;;;;1.77;1.30;;;;;;;;;;6242394;23;20161;-80
2024/03/04 11:18:28;;;;;;;1.90;0.93;;;;;;;;;;6214866;23;20192;-80
2024/03/04 11:20:55;;;;;;;2.97;1.10;;;;;;;;;;6191521;23;20163;-80
2024/03/04 11:23:23;;;;;;;1.30;1.00;;;;;;;;;;6214472;23;20199;-80
2024/03/04 11:25:51;;;;;;;2.37;1.17;;;;;;;;;;6243222;23;20262;-81
2024/03/04 11:28:19;;;;;;;1.57;0.80;;;;;;;;;;6243098;23;20161;-80
2024/03/04 11:30:47;;;;;;;1.50;0.87;;;;;;;;;;6243483;23;20177;-79
2024/03/04 11:33:34;;;;;;;2.43;0.83;;;;;;;;;;6242831;23;20191;-79
2024/03/04 11:36:01;;;;;;;1.43;0.97;;;;;;;;;;6242815;23;20168;-80
2024/03/04 11:38:29;;;;;;;2.13;1.20;;;;;;;;;;6215140;23;20196;-80
2024/03/04 11:41:00;;;;;;;1.77;1.00;;;;;;;;;;6242006;23;20165;-79
2024/03/04 11:43:54;;;;;;;2.73;1.00;;;;;;;;;;6241914;23;20196;-80
2024/03/04 11:46:23;;;;;;;1.07;0.83;;;;;;;;;;6193439;23;20193;-80
2024/03/04 11:48:51;;;;;;;1.20;0.90;;;;;;;;;;6242773;23;20176;-80
2024/03/04 11:51:37;;;;;;;1.33;0.90;;;;;;;;;;6242308;23;20208;-80
2024/03/04 11:54:05;;;;;;;2.40;1.17;;;;;;;;;;6242822;23;20171;-81
2024/03/04 11:56:32;;;;;;;1.63;0.90;;;;;;;;;;6242540;23;20647;-82
2024/03/04 11:58:59;;;;;;;2.00;0.90;;;;;;;;;;6191142;23;20257;-80
2024/03/04 12:01:29;;;;;;;3.43;1.00;;;;;;;;;;6242173;23;20184;-81
2024/03/04 12:03:56;;;;;;;1.27;0.90;;;;;;;;;;6242235;23;20177;-81
2024/03/04 12:06:23;;;;;;;1.83;1.20;;;;;;;;;;6239002;22;20220;-79
2024/03/04 12:08:51;;;;;;;1.87;1.00;;;;;;;;;;6214738;23;20174;-81
2024/03/04 12:11:38;;;;;;;1.50;1.10;;;;;;;;;;6241372;23;20245;-80
2024/03/04 12:14:06;;;;;;;1.13;0.80;;;;;;;;;;6241707;23;20163;-80
2024/03/04 12:16:34;;;;;;;2.63;0.87;;;;;;;;;;6241737;23;20255;-80
2024/03/04 12:19:01;;;;;;;2.60;1.07;;;;;;;;;;6241887;23;20197;-80
2024/03/04 12:21:28;;;;;;;2.23;1.00;;;;;;;;;;6241272;23;20174;-80
2024/03/04 12:23:58;;;;;;;1.10;1.00;;;;;;;;;;6241884;23;20214;-80
2024/03/04 12:26:26;;;;;;;2.27;0.90;;;;;;;;;;6241746;23;20172;-80
2024/03/04 12:28:57;;;;;;;2.10;1.03;;;;;;;;;;6241430;23;20174;-80
2024/03/04 12:31:24;;;;;;;1.87;0.90;;;;;;;;;;6241250;23;20179;-80
2024/03/04 12:33:55;;;;;;;1.83;0.90;;;;;;;;;;6240630;23;20168;-80
2024/03/04 12:36:26;;;;;;;2.40;1.30;;;;;;;;;;6241636;23;20159;-80
2024/03/04 12:38:56;;;;;;;2.03;1.00;;;;;;;;;;6215406;23;20275;-80
2024/03/04 12:41:24;;;;;;;1.63;1.10;;;;;;;;;;6241647;23;20158;-81
2024/03/04 12:43:55;;;;;;;3.70;1.30;;;;;;;;;;6239376;23;20182;-80
2024/03/04 12:46:22;;;;;;;2.50;1.00;;;;;;;;;;6240649;23;20182;-80
2024/03/04 12:48:50;;;;;;;1.67;1.10;;;;;;;;;;6241908;23;20191;-81
2024/03/04 12:51:17;;;;;;;1.70;0.90;;;;;;;;;;6241897;23;20168;-81
2024/03/04 12:53:44;;;;;;;1.67;1.10;;;;;;;;;;6214745;23;20258;-80
2024/03/04 12:56:12;;;;;;;2.63;1.00;;;;;;;;;;6215549;23;20682;-80
2024/03/04 12:58:39;;;;;;;4.23;1.07;;;;;;;;;;6241784;23;20177;-80
2024/03/04 13:01:14;;;;;;;2.83;0.90;;;;;;;;;;6241992;23;20329;-79
2024/03/04 13:03:41;;;;;;;1.97;1.03;;;;;;;;;;6241728;23;20665;-82
2024/03/04 13:06:09;;;;;;;1.77;0.90;;;;;;;;;;6241769;23;20243;-79
2024/03/04 13:08:36;;;;;;;2.30;1.10;;;;;;;;;;6241739;23;20176;-80
2024/03/04 13:11:04;;;;;;;2.60;1.40;;;;;;;;;;6214079;23;20608;-80
2024/03/04 13:13:31;;;;;;;3.73;1.10;;;;;;;;;;6239915;23;20152;-80
2024/03/04 13:15:58;;;;;;;2.60;1.20;;;;;;;;;;6241028;23;20168;-80
2024/03/04 13:18:26;;;;;;;1.90;0.93;;;;;;;;;;6215272;23;20172;-80
2024/03/04 13:20:53;;;;;;;2.30;1.00;;;;;;;;;;6241749;23;20171;-79
2024/03/04 13:23:20;;;;;;;3.67;0.97;;;;;;;;;;6243246;23;20559;-79
2024/03/04 13:25:47;;;;;;;2.63;1.30;;;;;;;;;;6216663;23;20203;-80
2024/03/04 13:28:14;;;;;;;1.43;1.00;;;;;;;;;;6244581;23;20171;-80
2024/03/04 13:30:43;;;;;;;2.37;1.00;;;;;;;;;;6216750;23;20258;-81
2024/03/04 13:33:10;;;;;;;2.20;0.90;;;;;;;;;;6217853;23;20197;-80
2024/03/04 13:35:38;;;;;;;3.50;1.10;;;;;;;;;;6216734;23;20172;-81
2024/03/04 13:38:14;;;;;;;7.73;1.40;;;;;;;;;;6243926;23;20147;-80
2024/03/04 13:40:41;;;;;;;0.87;0.80;;;;;;;;;;6243377;23;20167;-82
2024/03/04 13:43:09;;;;;;;2.77;1.20;;;;;;;;;;6217739;23;20243;-80
2024/03/04 13:45:45;;;;;;;3.33;1.20;;;;;;;;;;6243352;23;20709;-80
2024/03/04 13:48:17;;;;;;;1.47;0.90;;;;;;;;;;6216771;23;20174;-80
2024/03/04 13:50:44;;;;;;;5.47;1.60;;;;;;;;;;6243382;23;20175;-80
2024/03/04 13:53:11;;;;;;;2.87;1.00;;;;;;;;;;6244159;23;20194;-80
2024/03/04 13:55:42;;;;;;;2.00;0.90;;;;;;;;;;6217157;23;20174;-80
2024/03/04 13:58:10;;;;;;;2.30;0.93;;;;;;;;;;6243935;23;20171;-81
2024/03/04 14:00:37;;;;;;;4.63;1.10;;;;;;;;;;6243190;23;20240;-80
2024/03/04 14:03:07;;;;;;;2.63;0.90;;;;;;;;;;6243667;23;20175;-80
2024/03/04 14:05:35;;;;;;;2.57;1.00;;;;;;;;;;6242614;23;20189;-86
2024/03/04 14:08:04;;;;;;;1.40;1.00;;;;;;;;;;6216457;23;20393;-80
2024/03/04 14:10:31;;;;;;;3.47;1.03;;;;;;;;;;6243007;23;20172;-80
2024/03/04 14:12:57;;;;;;;1.97;1.13;;;;;;;;;;6243214;23;20202;-81
2024/03/04 14:15:25;;;;;;;2.63;1.00;;;;;;;;;;6243185;23;20663;-82
2024/03/04 14:17:52;;;;;;;2.60;1.10;;;;;;;;;;6243372;23;20167;-80
2024/03/04 14:20:19;;;;;;;3.20;1.13;;;;;;;;;;6243365;23;20168;-80
2024/03/04 14:22:45;;;;;;;2.30;1.20;;;;;;;;;;6243573;23;20264;-82
2024/03/04 14:25:15;;;;;;;2.93;1.60;;;;;;;;;;6243553;23;20190;-80
2024/03/04 14:27:41;;;;;;;1.43;1.10;;;;;;;;;;6243252;23;20602;-79
2024/03/04 14:30:09;;;;;;;1.77;1.10;;;;;;;;;;6243465;23;20238;-80
2024/03/04 14:32:35;;;;;;;2.40;1.10;;;;;;;;;;6243079;23;20168;-81
2024/03/04 14:35:04;;;;;;;2.00;1.10;;;;;;;;;;6243352;23;20242;-82
2024/03/04 14:37:31;;;;;;;1.90;1.50;;;;;;;;;;6243231;23;20167;-80
2024/03/04 14:39:58;;;;;;;2.93;1.50;;;;;;;;;;6216319;23;20172;-82
2024/03/04 14:42:25;;;;;;;4.07;1.40;;;;;;;;;;6216483;23;20182;-80
2024/03/04 14:44:54;;;;;;;2.73;1.20;;;;;;;;;;6242975;23;20257;-81
2024/03/04 14:47:20;;;;;;;3.20;1.30;;;;;;;;;;6243242;23;20169;-80
2024/03/04 14:49:47;;;;;;;1.47;1.10;;;;;;;;;;6216194;23;20173;-81
2024/03/04 14:52:14;;;;;;;2.80;1.30;;;;;;;;;;6242961;23;20221;-80